createdAt,value
2018-03-17T00:01:47.159Z,91.60
2018-03-17T00:04:14.709Z,91.80
2018-03-17T00:06:42.293Z,92.00
2018-03-17T00:09:09.845Z,91.50
2018-03-17T00:11:37.553Z,91.00
2018-03-17T00:14:05.928Z,91.40
2018-03-17T00:16:33.606Z,91.40
2018-03-17T00:19:01.317Z,91.50
2018-03-17T00:21:28.894Z,91.50
2018-03-17T00:23:56.644Z,91.30
2018-03-17T00:26:24.197Z,91.60
2018-03-17T00:28:51.957Z,90.70
2018-03-17T00:31:19.623Z,91.20
2018-03-17T00:33:47.174Z,90.90
2018-03-17T00:36:14.757Z,90.80
2018-03-17T00:38:42.313Z,91.30
2018-03-17T00:41:09.860Z,91.20
2018-03-17T00:43:37.448Z,91.10
2018-03-17T00:46:05.050Z,91.00
2018-03-17T00:48:32.853Z,91.20
2018-03-17T00:51:00.458Z,91.00
2018-03-17T00:53:28.042Z,91.30
2018-03-17T00:55:55.821Z,91.00
2018-03-17T00:58:23.448Z,90.80
2018-03-17T01:00:51.141Z,91.20
2018-03-17T01:03:18.690Z,91.00
2018-03-17T01:05:46.275Z,90.80
2018-03-17T01:08:13.837Z,91.10
2018-03-17T01:10:41.394Z,90.90
2018-03-17T01:13:08.993Z,90.90
2018-03-17T01:15:36.544Z,91.00
2018-03-17T01:18:04.095Z,90.90
2018-03-17T01:20:31.674Z,90.70
2018-03-17T01:22:59.226Z,90.80
2018-03-17T01:25:26.773Z,91.30
2018-03-17T01:27:54.385Z,90.90
2018-03-17T01:30:22.005Z,91.10
2018-03-17T01:32:49.554Z,91.10
2018-03-17T01:35:17.150Z,91.30
2018-03-17T01:37:44.692Z,91.20
2018-03-17T01:40:12.239Z,91.00
2018-03-17T01:42:39.826Z,91.60
2018-03-17T01:45:07.410Z,91.60
2018-03-17T01:47:34.962Z,92.10
2018-03-17T01:50:02.692Z,91.80
2018-03-17T01:52:30.237Z,91.60
2018-03-17T01:54:57.898Z,91.60
2018-03-17T01:57:25.498Z,91.50
2018-03-17T01:59:53.065Z,91.80
2018-03-17T02:02:20.836Z,91.60
2018-03-17T02:04:49.189Z,91.70
2018-03-17T02:07:16.751Z,91.60
2018-03-17T02:09:44.471Z,91.60
2018-03-17T02:12:12.106Z,91.70
2018-03-17T02:14:40.418Z,91.60
2018-03-17T02:17:08.018Z,91.60
2018-03-17T02:19:35.638Z,91.40
2018-03-17T02:22:03.309Z,91.40
2018-03-17T02:24:30.913Z,91.70
2018-03-17T02:26:58.651Z,91.90
2018-03-17T02:29:26.198Z,92.10
2018-03-17T02:31:53.936Z,91.90
2018-03-17T02:34:21.521Z,91.80
2018-03-17T02:36:49.078Z,91.80
2018-03-17T02:39:16.690Z,91.50
2018-03-17T02:41:44.470Z,91.90
2018-03-17T02:44:12.082Z,91.70
2018-03-17T02:46:39.633Z,92.20
2018-03-17T02:49:07.465Z,92.10
2018-03-17T02:51:35.010Z,91.90
2018-03-17T02:54:02.727Z,92.10
2018-03-17T02:56:30.581Z,92.50
2018-03-17T02:58:58.130Z,91.90
2018-03-17T03:01:25.684Z,92.10
2018-03-17T03:03:53.270Z,92.30
2018-03-17T03:06:22.451Z,91.80
2018-03-17T03:08:50.053Z,91.80
2018-03-17T03:11:17.808Z,92.00
2018-03-17T03:13:46.201Z,92.00
2018-03-17T03:16:13.921Z,92.00
2018-03-17T03:18:41.565Z,92.00
2018-03-17T03:21:09.237Z,91.80
2018-03-17T03:23:36.859Z,91.50
2018-03-17T03:26:05.314Z,91.90
2018-03-17T03:28:33.033Z,91.90
2018-03-17T03:31:00.649Z,91.70
2018-03-17T03:33:28.353Z,91.70
2018-03-17T03:35:55.898Z,91.70
2018-03-17T03:38:23.677Z,92.10
2018-03-17T03:40:51.398Z,91.90
2018-03-17T03:43:19.155Z,91.90
2018-03-17T03:45:47.039Z,91.70
2018-03-17T03:48:14.622Z,92.20
2018-03-17T03:50:42.173Z,92.20
2018-03-17T03:53:09.741Z,92.30
2018-03-17T03:55:37.498Z,92.00
2018-03-17T03:58:05.049Z,92.30
2018-03-17T04:00:32.622Z,92.20
2018-03-17T04:03:00.321Z,92.00
2018-03-17T04:05:28.637Z,91.90
2018-03-17T04:07:56.185Z,91.90
2018-03-17T04:10:23.826Z,92.00
2018-03-17T04:12:51.694Z,92.40
2018-03-17T04:15:19.243Z,92.00
2018-03-17T04:17:47.589Z,92.00
2018-03-17T04:20:15.144Z,92.00
2018-03-17T04:22:43.014Z,92.00
2018-03-17T04:25:10.597Z,92.20
2018-03-17T04:27:38.321Z,92.10
2018-03-17T04:30:05.881Z,91.90
2018-03-17T04:32:33.632Z,92.20
2018-03-17T04:35:02.081Z,92.70
2018-03-17T04:37:29.790Z,92.30
2018-03-17T04:39:57.373Z,91.90
2018-03-17T04:42:24.918Z,92.00
2018-03-17T04:44:52.469Z,91.90
2018-03-17T04:47:20.075Z,92.00
2018-03-17T04:49:47.629Z,92.20
2018-03-17T04:52:15.177Z,92.10
2018-03-17T04:54:43.537Z,92.40
2018-03-17T04:57:11.129Z,92.40
2018-03-17T04:59:38.786Z,91.70
2018-03-17T05:02:06.421Z,92.20
2018-03-17T05:04:34.885Z,92.00
2018-03-17T05:07:02.429Z,92.00
2018-03-17T05:09:30.014Z,91.50
2018-03-17T05:11:58.346Z,91.90
2018-03-17T05:14:25.895Z,91.90
2018-03-17T05:16:53.582Z,92.00
2018-03-17T05:19:21.438Z,91.60
2018-03-17T05:21:49.058Z,91.60
2018-03-17T05:24:16.770Z,91.70
2018-03-17T05:26:44.316Z,91.60
2018-03-17T05:29:12.268Z,91.40
2018-03-17T05:31:40.217Z,91.40
2018-03-17T05:34:07.776Z,91.50
2018-03-17T05:36:35.517Z,91.60
2018-03-17T05:39:03.195Z,91.30
2018-03-17T05:41:30.755Z,91.60
2018-03-17T05:43:58.338Z,91.50
2018-03-17T05:46:25.937Z,91.40
2018-03-17T05:48:53.490Z,91.30
2018-03-17T05:51:21.042Z,91.50
2018-03-17T05:53:48.629Z,91.10
2018-03-17T05:56:16.177Z,91.30
2018-03-17T05:58:44.500Z,91.00
2018-03-17T06:01:12.287Z,91.00
2018-03-17T06:03:39.838Z,91.50
2018-03-17T06:06:07.459Z,91.90
2018-03-17T06:08:35.039Z,91.30
2018-03-17T06:11:02.616Z,91.10
2018-03-17T06:13:30.337Z,91.80
2018-03-17T06:19:06.082Z,91.20
2018-03-17T06:21:34.590Z,91.40
2018-03-17T06:24:02.422Z,91.00
2018-03-17T06:26:30.446Z,91.20
2018-03-17T06:28:58.322Z,91.40
2018-03-17T06:31:25.950Z,91.30
2018-03-17T06:33:53.669Z,91.20
2018-03-17T06:36:21.314Z,91.60
2018-03-17T06:38:49.143Z,91.40
2018-03-17T06:41:16.902Z,91.30
2018-03-17T06:43:44.954Z,91.20
2018-03-17T06:46:12.586Z,91.20
2018-03-17T06:48:40.153Z,91.00
2018-03-17T06:51:09.362Z,91.60
2018-03-17T06:53:37.953Z,91.10
2018-03-17T06:56:05.679Z,91.10
2018-03-17T06:58:33.517Z,90.90
2018-03-17T07:01:01.074Z,90.80
2018-03-17T07:03:28.622Z,91.10
2018-03-17T07:05:56.310Z,91.10
2018-03-17T07:08:23.990Z,90.40
2018-03-17T07:10:51.598Z,90.60
2018-03-17T07:13:19.511Z,90.80
2018-03-17T07:15:47.067Z,90.60
2018-03-17T07:18:14.621Z,90.70
2018-03-17T07:20:42.210Z,90.50
2018-03-17T07:23:09.946Z,90.40
2018-03-17T07:25:37.669Z,90.50
2018-03-17T07:28:05.253Z,90.30
2018-03-17T07:30:32.849Z,90.70
2018-03-17T07:33:00.599Z,90.40
2018-03-17T07:35:28.225Z,90.40
2018-03-17T07:37:55.949Z,90.30
2018-03-17T07:40:24.610Z,90.50
2018-03-17T07:42:52.195Z,90.50
2018-03-17T07:45:20.178Z,89.70
2018-03-17T07:47:48.474Z,89.70
2018-03-17T07:50:16.230Z,90.20
2018-03-17T07:52:44.063Z,89.10
2018-03-17T07:55:11.626Z,89.70
2018-03-17T07:57:39.357Z,88.00
2018-03-17T08:00:07.070Z,89.00
2018-03-17T08:02:34.647Z,89.00
2018-03-17T08:05:02.424Z,87.90
2018-03-17T08:07:29.990Z,88.70
2018-03-17T08:09:57.552Z,89.40
2018-03-17T08:12:25.159Z,87.30
2018-03-17T08:14:53.092Z,88.40
2018-03-17T08:17:20.657Z,87.90
2018-03-17T08:19:48.623Z,87.10
2018-03-17T08:22:16.954Z,88.00
2018-03-17T08:24:44.509Z,88.00
2018-03-17T08:27:12.422Z,88.00
2018-03-17T08:29:40.238Z,87.10
2018-03-17T08:32:07.951Z,87.70
2018-03-17T08:34:36.789Z,87.50
2018-03-17T08:37:04.345Z,87.40
2018-03-17T08:39:31.919Z,86.70
2018-03-17T08:41:59.602Z,87.00
2018-03-17T08:44:27.154Z,88.10
2018-03-17T08:46:54.710Z,87.50
2018-03-17T08:49:22.302Z,87.80
2018-03-17T08:51:50.087Z,87.80
2018-03-17T08:54:17.663Z,87.10
2018-03-17T08:56:45.430Z,87.90
2018-03-17T08:59:14.543Z,87.80
2018-03-17T09:01:42.164Z,87.80
2018-03-17T09:04:09.971Z,87.30
2018-03-17T09:06:37.613Z,87.40
2018-03-17T09:09:05.177Z,87.20
2018-03-17T09:11:32.952Z,88.20
2018-03-17T09:14:00.511Z,87.40
2018-03-17T09:16:28.247Z,87.90
2018-03-17T09:18:56.175Z,87.40
2018-03-17T09:21:24.549Z,88.50
2018-03-17T09:23:52.113Z,88.50
2018-03-17T09:26:20.485Z,87.50
2018-03-17T09:28:48.042Z,87.30
2018-03-17T09:31:16.508Z,87.70
2018-03-17T09:33:44.126Z,87.60
2018-03-17T09:36:11.672Z,87.80
2018-03-17T09:38:39.426Z,87.80
2018-03-17T09:41:07.347Z,87.70
2018-03-17T09:43:34.982Z,89.10
2018-03-17T09:46:02.731Z,87.90
2018-03-17T09:48:30.509Z,87.20
2018-03-17T09:50:58.062Z,87.30
2018-03-17T09:53:25.855Z,88.80
2018-03-17T09:55:53.454Z,87.10
2018-03-17T09:58:21.383Z,87.70
2018-03-17T10:00:49.253Z,87.40
2018-03-17T10:03:17.323Z,87.00
2018-03-17T10:05:44.996Z,87.50
2018-03-17T10:08:13.331Z,87.50
2018-03-17T10:10:41.087Z,87.50
2018-03-17T10:13:08.650Z,88.10
2018-03-17T10:15:36.228Z,87.90
2018-03-17T10:18:03.908Z,87.20
2018-03-17T10:20:31.712Z,87.30
2018-03-17T10:22:59.593Z,86.90
2018-03-17T10:25:27.271Z,87.40
2018-03-17T10:27:54.870Z,89.10
2018-03-17T10:30:22.427Z,87.20
2018-03-17T10:32:51.023Z,87.70
2018-03-17T10:35:18.764Z,87.70
2018-03-17T10:37:46.550Z,88.30
2018-03-17T10:40:14.143Z,88.00
2018-03-17T10:42:41.746Z,87.80
2018-03-17T10:45:10.018Z,87.80
2018-03-17T10:47:37.637Z,88.90
2018-03-17T10:50:05.277Z,88.00
2018-03-17T10:52:32.836Z,88.20
2018-03-17T10:55:00.642Z,87.30
2018-03-17T10:57:28.318Z,87.60
2018-03-17T10:59:55.904Z,87.90
2018-03-17T11:02:23.568Z,88.60
2018-03-17T11:04:51.295Z,87.40
2018-03-17T11:07:18.946Z,87.40
2018-03-17T11:09:46.680Z,87.60
2018-03-17T11:12:14.254Z,88.40
2018-03-17T11:14:41.815Z,87.70
2018-03-17T11:17:09.606Z,87.40
2018-03-17T11:19:37.252Z,88.70
2018-03-17T11:22:04.818Z,88.70
2018-03-17T11:24:33.185Z,89.20
2018-03-17T11:27:00.870Z,89.20
2018-03-17T11:29:29.525Z,88.70
2018-03-17T11:31:57.180Z,88.70
2018-03-17T11:34:24.862Z,88.90
2018-03-17T11:36:52.666Z,89.10
2018-03-17T11:39:20.254Z,89.90
2018-03-17T11:41:47.901Z,89.40
2018-03-17T11:44:17.184Z,89.00
2018-03-17T11:46:45.014Z,89.00
2018-03-17T11:49:12.574Z,89.60
2018-03-17T11:51:40.326Z,89.50
2018-03-17T11:54:08.200Z,89.80
2018-03-17T11:56:36.728Z,89.60
2018-03-17T11:59:04.287Z,89.50
2018-03-17T12:01:31.894Z,89.70
2018-03-17T12:03:59.862Z,89.80
2018-03-17T12:06:28.221Z,89.40
2018-03-17T12:08:56.034Z,89.40
2018-03-17T12:11:23.666Z,89.50
2018-03-17T12:13:51.337Z,88.90
2018-03-17T12:16:19.781Z,89.90
2018-03-17T12:18:47.815Z,89.80
2018-03-17T12:21:15.414Z,90.00
2018-03-17T12:23:43.241Z,89.50
2018-03-17T12:26:10.987Z,88.60
2018-03-17T12:28:38.646Z,89.80
2018-03-17T12:31:06.243Z,89.20
2018-03-17T12:33:33.987Z,88.50
2018-03-17T12:36:01.712Z,89.60
2018-03-17T12:38:29.583Z,89.80
2018-03-17T12:40:58.098Z,89.10
2018-03-17T12:43:25.767Z,89.10
2018-03-17T12:45:53.411Z,89.70
2018-03-17T12:48:21.415Z,90.00
2018-03-17T12:50:49.287Z,89.90
2018-03-17T12:53:17.168Z,90.30
2018-03-17T12:55:44.999Z,90.30
2018-03-17T12:58:12.656Z,90.10
2018-03-17T13:00:40.544Z,90.00
2018-03-17T13:03:08.281Z,89.60
2018-03-17T13:05:36.102Z,90.30
2018-03-17T13:08:04.594Z,89.80
2018-03-17T13:10:32.906Z,90.20
2018-03-17T13:13:00.650Z,90.10
2018-03-17T13:15:28.253Z,90.20
2018-03-17T13:17:55.798Z,90.10
2018-03-17T13:20:23.491Z,90.10
2018-03-17T13:25:52.800Z,89.30
2018-03-17T13:28:35.994Z,89.80
2018-03-17T13:31:03.557Z,89.90
2018-03-17T13:33:31.348Z,90.20
2018-03-17T13:36:10.923Z,90.10
2018-03-17T13:38:39.315Z,89.50
2018-03-17T13:41:07.047Z,89.40
2018-03-17T13:43:35.508Z,90.10
2018-03-17T13:46:03.057Z,90.10
2018-03-17T13:48:31.058Z,89.50
2018-03-17T13:50:59.513Z,89.60
2018-03-17T13:53:27.547Z,89.60
2018-03-17T13:55:55.210Z,90.00
2018-03-17T13:58:22.950Z,89.20
2018-03-17T14:00:50.499Z,89.40
2018-03-17T14:03:18.084Z,89.50
2018-03-17T14:05:45.706Z,89.10
2018-03-17T14:08:14.518Z,89.90
2018-03-17T14:10:42.066Z,89.90
2018-03-17T14:13:09.773Z,89.50
2018-03-17T14:15:37.328Z,89.30
2018-03-17T14:18:04.971Z,88.70
2018-03-17T14:20:32.837Z,90.20
2018-03-17T14:23:00.439Z,89.30
2018-03-17T14:25:27.999Z,88.60
2018-03-17T14:27:55.677Z,89.30
2018-03-17T14:30:23.251Z,88.50
2018-03-17T14:32:50.808Z,89.70
2018-03-17T14:35:18.438Z,89.50
2018-03-17T14:37:46.053Z,89.10
2018-03-17T14:40:13.654Z,88.80
2018-03-17T14:42:41.437Z,89.90
2018-03-17T14:45:09.784Z,89.40
2018-03-17T14:47:37.381Z,89.40
2018-03-17T14:50:05.850Z,88.60
2018-03-17T14:52:35.189Z,89.00
2018-03-17T14:55:02.755Z,88.90
2018-03-17T14:57:30.345Z,89.20
2018-03-17T14:59:58.173Z,88.50
2018-03-17T15:02:26.141Z,89.50
2018-03-17T15:04:53.893Z,88.90
2018-03-17T15:07:21.729Z,89.10
2018-03-17T15:09:50.088Z,89.00
2018-03-17T15:12:17.759Z,89.00
2018-03-17T15:14:45.319Z,88.60
2018-03-17T15:17:13.948Z,89.20
2018-03-17T15:19:41.930Z,89.10
2018-03-17T15:22:09.519Z,88.50
2018-03-17T15:24:37.850Z,88.40
2018-03-17T15:27:05.444Z,88.50
2018-03-17T15:29:33.251Z,88.30
2018-03-17T15:32:02.580Z,88.80
2018-03-17T15:34:30.246Z,88.70
2018-03-17T15:36:57.816Z,88.10
2018-03-17T15:39:25.387Z,88.30
2018-03-17T15:41:53.251Z,88.10
2018-03-17T15:44:20.826Z,88.60
2018-03-17T15:46:48.747Z,87.90
2018-03-17T15:49:16.650Z,87.70
2018-03-17T15:51:44.253Z,87.80
2018-03-17T15:54:11.811Z,87.60
2018-03-17T15:56:39.438Z,88.20
2018-03-17T15:59:07.766Z,87.70
2018-03-17T16:01:35.357Z,87.50
2018-03-17T16:04:03.038Z,87.30
2018-03-17T16:06:31.441Z,87.00
2018-03-17T16:08:59.498Z,86.90
2018-03-17T16:11:27.375Z,87.30
2018-03-17T16:13:54.947Z,87.20
2018-03-17T16:16:22.508Z,87.10
2018-03-17T16:18:50.198Z,87.50
2018-03-17T16:21:17.758Z,87.40
2018-03-17T16:23:46.371Z,86.70
2018-03-17T16:26:14.729Z,86.40
2018-03-17T16:28:42.301Z,86.40
2018-03-17T16:31:09.888Z,87.40
2018-03-17T16:33:37.607Z,86.80
2018-03-17T16:36:05.181Z,86.10
2018-03-17T16:38:32.747Z,84.80
2018-03-17T16:41:01.119Z,85.60
2018-03-17T16:43:28.683Z,85.50
2018-03-17T16:45:57.004Z,85.40
2018-03-17T16:48:24.938Z,85.30
2018-03-17T16:50:52.551Z,84.60
2018-03-17T16:53:20.488Z,85.60
2018-03-17T16:55:48.108Z,85.10
2018-03-17T16:58:15.686Z,84.80
2018-03-17T17:00:43.335Z,84.40
2018-03-17T17:03:11.058Z,84.80
2018-03-17T17:05:38.675Z,84.40
2018-03-17T17:08:06.695Z,83.50
2018-03-17T17:10:34.313Z,85.10
2018-03-17T17:13:01.884Z,84.60
2018-03-17T17:15:29.690Z,84.30
2018-03-17T17:17:57.930Z,84.30
2018-03-17T17:20:25.518Z,85.60
2018-03-17T17:22:53.453Z,84.60
2018-03-17T17:25:21.176Z,83.90
2018-03-17T17:27:48.740Z,84.70
2018-03-17T17:30:16.327Z,84.70
2018-03-17T17:32:43.922Z,83.60
2018-03-17T17:35:11.479Z,84.70
2018-03-17T17:37:39.042Z,84.80
2018-03-17T17:40:07.744Z,84.80
2018-03-17T17:42:35.430Z,82.70
2018-03-17T17:45:03.628Z,84.50
2018-03-17T17:47:31.478Z,84.50
2018-03-17T17:49:59.081Z,84.80
2018-03-17T17:52:26.794Z,84.20
2018-03-17T17:54:55.017Z,83.70
2018-03-17T17:57:24.772Z,83.90
2018-03-17T17:59:52.528Z,83.80
2018-03-17T18:02:20.528Z,83.20
2018-03-17T18:04:48.510Z,84.90
2018-03-17T18:07:16.087Z,83.50
2018-03-17T18:09:43.682Z,84.10
2018-03-17T18:12:11.241Z,84.70
2018-03-17T18:14:38.807Z,84.90
2018-03-17T18:17:06.404Z,85.00
2018-03-17T18:19:33.982Z,85.00
2018-03-17T18:22:01.589Z,84.80
2018-03-17T18:24:29.471Z,85.30
2018-03-17T18:26:57.073Z,85.40
2018-03-17T18:29:24.801Z,85.40
2018-03-17T18:31:53.481Z,85.60
2018-03-17T18:34:21.059Z,85.60
2018-03-17T18:36:48.818Z,85.20
2018-03-17T18:39:16.574Z,85.60
2018-03-17T18:41:44.566Z,84.90
2018-03-17T18:44:12.118Z,85.00
2018-03-17T18:46:39.941Z,85.10
2018-03-17T18:49:07.818Z,86.20
2018-03-17T18:51:35.403Z,86.40
2018-03-17T18:54:03.317Z,85.90
2018-03-17T18:56:31.926Z,85.00
2018-03-17T18:58:59.497Z,85.40
2018-03-17T19:01:27.477Z,85.40
2018-03-17T19:03:55.138Z,84.40
2018-03-17T19:06:22.703Z,84.80
2018-03-17T19:08:51.998Z,85.40
2018-03-17T19:11:20.841Z,85.90
2018-03-17T19:13:48.475Z,86.20
2018-03-17T19:16:16.856Z,85.80
2018-03-17T19:18:44.810Z,85.70
2018-03-17T19:21:12.377Z,85.70
2018-03-17T19:23:39.990Z,86.00
2018-03-17T19:26:07.743Z,86.20
2018-03-17T19:28:35.595Z,85.80
2018-03-17T19:31:03.523Z,85.60
2018-03-17T19:33:31.244Z,86.50
2018-03-17T19:35:58.963Z,86.20
2018-03-17T19:38:26.671Z,86.90
2018-03-17T19:40:54.425Z,85.90
2018-03-17T19:43:22.011Z,86.70
2018-03-17T19:45:49.861Z,86.00
2018-03-17T19:48:17.510Z,85.60
2018-03-17T19:50:45.485Z,85.10
2018-03-17T19:53:13.467Z,85.20
2018-03-17T19:55:41.309Z,85.50
2018-03-17T19:58:09.298Z,86.10
2018-03-17T20:00:37.043Z,86.00
2018-03-17T20:03:04.690Z,85.40
2018-03-17T20:05:32.572Z,84.60
2018-03-17T20:08:00.190Z,85.00
2018-03-17T20:10:27.773Z,85.60
2018-03-17T20:12:55.669Z,85.10
2018-03-17T20:15:23.283Z,84.70
2018-03-17T20:17:50.854Z,85.40
2018-03-17T20:20:18.551Z,84.80
2018-03-17T20:22:46.177Z,84.50
2018-03-17T20:25:13.747Z,84.90
2018-03-17T20:27:41.320Z,85.10
2018-03-17T20:30:08.975Z,84.70
2018-03-17T20:32:37.351Z,85.20
2018-03-17T20:35:04.931Z,85.00
2018-03-17T20:37:32.718Z,85.10
2018-03-17T20:40:00.842Z,85.00
2018-03-17T20:42:28.964Z,85.70
2018-03-17T20:44:57.394Z,84.90
2018-03-17T20:47:24.979Z,84.90
2018-03-17T20:49:52.558Z,84.90
2018-03-17T20:52:20.385Z,84.40
2018-03-17T20:54:47.941Z,85.20
2018-03-17T20:57:15.503Z,84.70
2018-03-17T20:59:43.230Z,85.30
2018-03-17T21:02:11.445Z,84.40
2018-03-17T21:04:39.002Z,84.60
2018-03-17T21:07:06.926Z,83.80
2018-03-17T21:09:34.686Z,83.20
2018-03-17T21:12:02.246Z,84.00
2018-03-17T21:14:30.806Z,84.10
2018-03-17T21:16:59.008Z,84.10
2018-03-17T21:19:26.591Z,83.90
2018-03-17T21:21:54.398Z,84.90
2018-03-17T21:24:22.022Z,84.40
2018-03-17T21:26:49.796Z,84.70
2018-03-17T21:29:17.657Z,84.70
2018-03-17T21:31:45.929Z,84.70
2018-03-17T21:34:13.995Z,84.70
2018-03-17T21:36:41.977Z,85.10
2018-03-17T21:39:09.770Z,84.40
2018-03-17T21:41:37.807Z,84.70
2018-03-17T21:44:05.784Z,83.60
2018-03-17T21:46:33.886Z,84.60
2018-03-17T21:49:02.234Z,84.20
2018-03-17T21:51:29.842Z,84.10
2018-03-17T21:53:57.862Z,83.30
2018-03-17T21:56:25.435Z,84.60
2018-03-17T21:58:53.568Z,84.60
2018-03-17T22:01:21.670Z,85.50
2018-03-17T22:03:49.255Z,85.10
2018-03-17T22:06:17.253Z,85.40
2018-03-17T22:08:45.026Z,84.40
2018-03-17T22:11:13.096Z,84.70
2018-03-17T22:13:40.960Z,84.70
2018-03-17T22:16:08.789Z,85.10
2018-03-17T22:18:36.365Z,84.80
2018-03-17T22:21:04.467Z,85.40
2018-03-17T22:23:32.030Z,86.10
2018-03-17T22:25:59.589Z,86.90
2018-03-17T22:28:27.429Z,86.30
2018-03-17T22:30:54.989Z,86.60
2018-03-17T22:33:22.551Z,86.00
2018-03-17T22:35:50.748Z,87.60
2018-03-17T22:38:18.438Z,87.30
2018-03-17T22:40:46.844Z,85.90
2018-03-17T22:43:14.751Z,85.80
2018-03-17T22:45:42.833Z,86.90
2018-03-17T22:48:10.396Z,86.40
2018-03-17T22:50:38.003Z,86.00
2018-03-17T22:53:05.609Z,85.70
2018-03-17T22:55:33.163Z,85.40
2018-03-17T22:58:00.749Z,86.20
2018-03-17T23:00:29.070Z,86.20
2018-03-17T23:02:56.807Z,86.10
2018-03-17T23:05:24.414Z,86.00
2018-03-17T23:07:52.023Z,85.40
2018-03-17T23:10:20.506Z,85.60
2018-03-17T23:12:48.135Z,85.50
2018-03-17T23:15:15.687Z,85.80
2018-03-17T23:17:43.497Z,86.30
2018-03-17T23:20:11.105Z,85.40
2018-03-17T23:22:38.665Z,86.30
2018-03-17T23:25:07.097Z,86.00
2018-03-17T23:27:35.141Z,86.00
2018-03-17T23:30:03.544Z,86.40
2018-03-17T23:32:31.115Z,86.40
2018-03-17T23:34:58.899Z,86.50
2018-03-17T23:37:26.954Z,86.30
2018-03-17T23:39:54.514Z,86.10
2018-03-17T23:42:22.143Z,86.60
2018-03-17T23:44:49.719Z,86.00
2018-03-17T23:47:17.287Z,85.90
2018-03-17T23:49:45.307Z,86.50
2018-03-17T23:52:13.651Z,85.50
2018-03-17T23:54:41.214Z,85.40
2018-03-17T23:57:09.012Z,85.10
2018-03-17T23:59:36.711Z,85.00
